sensor_id;sensor_type;location;lat;lon;timestamp;temperature;humidity
23550;DHT22;11953;49.010;8.608;2022-11-20T00:00:37;7.10;99.90
23550;DHT22;11953;49.010;8.608;2022-11-20T00:03:24;7.10;99.90
23550;DHT22;11953;49.010;8.608;2022-11-20T00:06:17;7.20;99.90
23550;DHT22;11953;49.010;8.608;2022-11-20T00:09:04;7.30;99.90
23550;DHT22;11953;49.010;8.608;2022-11-20T00:11:50;7.40;99.90
23550;DHT22;11953;49.010;8.608;2022-11-20T00:14:36;7.40;99.90
23550;DHT22;11953;49.010;8.608;2022-11-20T00:17:23;7.40;99.90
23550;DHT22;11953;49.010;8.608;2022-11-20T00:20:12;7.30;99.90
23550;DHT22;11953;49.010;8.608;2022-11-20T00:22:58;7.30;99.90
23550;DHT22;11953;49.010;8.608;2022-11-20T00:25:45;7.20;99.90
23550;DHT22;11953;49.010;8.608;2022-11-20T00:28:32;7.20;99.90
23550;DHT22;11953;49.010;8.608;2022-11-20T00:31:18;7.20;99.90
23550;DHT22;11953;49.010;8.608;2022-11-20T00:34:05;7.20;99.90
23550;DHT22;11953;49.010;8.608;2022-11-20T00:36:52;7.20;99.90
23550;DHT22;11953;49.010;8.608;2022-11-20T00:39:39;7.20;99.90
23550;DHT22;11953;49.010;8.608;2022-11-20T00:42:25;7.30;99.90
23550;DHT22;11953;49.010;8.608;2022-11-20T00:45:12;7.30;99.90
23550;DHT22;11953;49.010;8.608;2022-11-20T00:47:58;7.20;99.90
23550;DHT22;11953;49.010;8.608;2022-11-20T00:50:45;7.30;99.90
23550;DHT22;11953;49.010;8.608;2022-11-20T00:53:33;7.30;99.90
23550;DHT22;11953;49.010;8.608;2022-11-20T00:56:19;7.30;99.90
23550;DHT22;11953;49.010;8.608;2022-11-20T00:59:06;7.40;99.90
23550;DHT22;11953;49.010;8.608;2022-11-20T01:01:52;7.40;99.90
23550;DHT22;11953;49.010;8.608;2022-11-20T01:04:39;7.40;99.90
23550;DHT22;11953;49.010;8.608;2022-11-20T01:07:25;7.40;99.90
23550;DHT22;11953;49.010;8.608;2022-11-20T01:10:14;7.50;99.90
23550;DHT22;11953;49.010;8.608;2022-11-20T01:13:00;7.50;99.90
23550;DHT22;11953;49.010;8.608;2022-11-20T01:16:09;7.50;99.90
23550;DHT22;11953;49.010;8.608;2022-11-20T01:18:57;7.50;99.90
23550;DHT22;11953;49.010;8.608;2022-11-20T01:21:47;7.50;99.90
23550;DHT22;11953;49.010;8.608;2022-11-20T01:24:34;7.50;99.90
23550;DHT22;11953;49.010;8.608;2022-11-20T01:27:22;7.60;99.90
23550;DHT22;11953;49.010;8.608;2022-11-20T01:30:09;7.60;99.90
23550;DHT22;11953;49.010;8.608;2022-11-20T01:32:56;7.60;99.90
23550;DHT22;11953;49.010;8.608;2022-11-20T01:35:42;7.60;99.90
23550;DHT22;11953;49.010;8.608;2022-11-20T01:38:28;7.70;99.90
23550;DHT22;11953;49.010;8.608;2022-11-20T01:41:15;7.70;99.90
23550;DHT22;11953;49.010;8.608;2022-11-20T01:44:18;7.70;99.90
23550;DHT22;11953;49.010;8.608;2022-11-20T01:47:06;7.60;99.90
23550;DHT22;11953;49.010;8.608;2022-11-20T01:49:57;7.60;99.90
23550;DHT22;11953;49.010;8.608;2022-11-20T01:52:49;7.60;99.90
23550;DHT22;11953;49.010;8.608;2022-11-20T01:55:41;7.70;99.90
23550;DHT22;11953;49.010;8.608;2022-11-20T01:58:33;7.60;99.90
23550;DHT22;11953;49.010;8.608;2022-11-20T02:01:23;7.60;99.90
23550;DHT22;11953;49.010;8.608;2022-11-20T02:04:10;7.60;99.90
23550;DHT22;11953;49.010;8.608;2022-11-20T02:06:59;7.60;99.90
23550;DHT22;11953;49.010;8.608;2022-11-20T02:09:46;7.70;99.90
23550;DHT22;11953;49.010;8.608;2022-11-20T02:12:33;7.60;99.90
23550;DHT22;11953;49.010;8.608;2022-11-20T02:15:37;7.60;99.90
23550;DHT22;11953;49.010;8.608;2022-11-20T02:18:25;7.60;99.90
23550;DHT22;11953;49.010;8.608;2022-11-20T02:21:27;7.60;99.90
23550;DHT22;11953;49.010;8.608;2022-11-20T02:24:17;7.70;99.90
23550;DHT22;11953;49.010;8.608;2022-11-20T02:27:07;7.70;99.90
23550;DHT22;11953;49.010;8.608;2022-11-20T02:29:57;7.70;99.90
23550;DHT22;11953;49.010;8.608;2022-11-20T02:32:47;7.80;99.90
23550;DHT22;11953;49.010;8.608;2022-11-20T02:35:44;7.80;99.90
23550;DHT22;11953;49.010;8.608;2022-11-20T02:38:31;7.80;99.90
23550;DHT22;11953;49.010;8.608;2022-11-20T02:41:19;7.70;99.90
23550;DHT22;11953;49.010;8.608;2022-11-20T02:44:06;7.80;99.90
23550;DHT22;11953;49.010;8.608;2022-11-20T02:46:52;7.70;99.90
23550;DHT22;11953;49.010;8.608;2022-11-20T02:49:38;7.80;99.90
23550;DHT22;11953;49.010;8.608;2022-11-20T02:52:25;7.80;99.90
23550;DHT22;11953;49.010;8.608;2022-11-20T02:55:12;7.80;99.90
23550;DHT22;11953;49.010;8.608;2022-11-20T02:58:00;7.90;99.90
23550;DHT22;11953;49.010;8.608;2022-11-20T03:00:47;7.80;99.90
23550;DHT22;11953;49.010;8.608;2022-11-20T03:03:33;7.80;99.90
23550;DHT22;11953;49.010;8.608;2022-11-20T03:06:20;7.80;99.90
23550;DHT22;11953;49.010;8.608;2022-11-20T03:09:06;7.70;99.90
23550;DHT22;11953;49.010;8.608;2022-11-20T03:11:53;7.80;99.90
23550;DHT22;11953;49.010;8.608;2022-11-20T03:14:41;7.80;99.90
23550;DHT22;11953;49.010;8.608;2022-11-20T03:17:27;7.80;99.90
23550;DHT22;11953;49.010;8.608;2022-11-20T03:20:15;7.80;99.90
23550;DHT22;11953;49.010;8.608;2022-11-20T03:23:01;7.90;99.90
23550;DHT22;11953;49.010;8.608;2022-11-20T03:25:48;7.90;99.90
23550;DHT22;11953;49.010;8.608;2022-11-20T03:28:35;7.90;99.90
23550;DHT22;11953;49.010;8.608;2022-11-20T03:31:24;7.90;99.90
23550;DHT22;11953;49.010;8.608;2022-11-20T03:34:11;7.90;99.90
23550;DHT22;11953;49.010;8.608;2022-11-20T03:36:58;7.80;99.90
23550;DHT22;11953;49.010;8.608;2022-11-20T03:39:45;7.70;99.90
23550;DHT22;11953;49.010;8.608;2022-11-20T03:42:31;7.70;99.90
23550;DHT22;11953;49.010;8.608;2022-11-20T03:45:32;7.70;99.90
23550;DHT22;11953;49.010;8.608;2022-11-20T03:48:20;7.70;99.90
23550;DHT22;11953;49.010;8.608;2022-11-20T03:51:09;7.70;99.90
23550;DHT22;11953;49.010;8.608;2022-11-20T03:53:57;7.70;99.90
23550;DHT22;11953;49.010;8.608;2022-11-20T03:56:44;7.70;99.90
23550;DHT22;11953;49.010;8.608;2022-11-20T03:59:31;7.70;99.90
23550;DHT22;11953;49.010;8.608;2022-11-20T04:02:17;7.80;99.90
23550;DHT22;11953;49.010;8.608;2022-11-20T04:05:06;7.80;99.90
23550;DHT22;11953;49.010;8.608;2022-11-20T04:07:53;7.80;99.90
23550;DHT22;11953;49.010;8.608;2022-11-20T04:10:40;7.90;99.90
23550;DHT22;11953;49.010;8.608;2022-11-20T04:13:26;7.80;99.90
23550;DHT22;11953;49.010;8.608;2022-11-20T04:16:13;7.80;99.90
23550;DHT22;11953;49.010;8.608;2022-11-20T04:19:01;7.80;99.90
23550;DHT22;11953;49.010;8.608;2022-11-20T04:21:49;7.80;99.90
23550;DHT22;11953;49.010;8.608;2022-11-20T04:24:36;7.80;99.90
23550;DHT22;11953;49.010;8.608;2022-11-20T04:27:23;7.70;99.90
23550;DHT22;11953;49.010;8.608;2022-11-20T04:30:10;7.70;99.90
23550;DHT22;11953;49.010;8.608;2022-11-20T04:32:56;7.70;99.90
23550;DHT22;11953;49.010;8.608;2022-11-20T04:35:45;7.70;99.90
23550;DHT22;11953;49.010;8.608;2022-11-20T04:38:34;7.70;99.90
23550;DHT22;11953;49.010;8.608;2022-11-20T04:41:22;7.70;99.90
23550;DHT22;11953;49.010;8.608;2022-11-20T04:44:09;7.70;99.90
23550;DHT22;11953;49.010;8.608;2022-11-20T04:46:55;7.80;99.90
23550;DHT22;11953;49.010;8.608;2022-11-20T04:49:42;7.80;99.90
23550;DHT22;11953;49.010;8.608;2022-11-20T04:52:29;7.80;99.90
23550;DHT22;11953;49.010;8.608;2022-11-20T04:55:16;7.80;99.90
23550;DHT22;11953;49.010;8.608;2022-11-20T04:58:03;7.80;99.90
23550;DHT22;11953;49.010;8.608;2022-11-20T05:00:49;7.80;99.90
23550;DHT22;11953;49.010;8.608;2022-11-20T05:03:37;7.80;99.90
23550;DHT22;11953;49.010;8.608;2022-11-20T05:06:27;7.80;99.90
23550;DHT22;11953;49.010;8.608;2022-11-20T05:09:13;7.90;99.90
23550;DHT22;11953;49.010;8.608;2022-11-20T05:12:01;7.90;99.90
23550;DHT22;11953;49.010;8.608;2022-11-20T05:14:47;7.90;99.90
23550;DHT22;11953;49.010;8.608;2022-11-20T05:17:34;7.90;99.90
23550;DHT22;11953;49.010;8.608;2022-11-20T05:20:20;7.90;99.90
23550;DHT22;11953;49.010;8.608;2022-11-20T05:23:07;7.90;99.90
23550;DHT22;11953;49.010;8.608;2022-11-20T05:25:53;8.00;99.90
23550;DHT22;11953;49.010;8.608;2022-11-20T05:28:45;7.90;99.90
23550;DHT22;11953;49.010;8.608;2022-11-20T05:31:32;7.90;99.90
23550;DHT22;11953;49.010;8.608;2022-11-20T05:34:18;7.90;99.90
23550;DHT22;11953;49.010;8.608;2022-11-20T05:37:04;7.90;99.90
23550;DHT22;11953;49.010;8.608;2022-11-20T05:39:51;7.90;99.90
23550;DHT22;11953;49.010;8.608;2022-11-20T05:42:37;7.90;99.90
23550;DHT22;11953;49.010;8.608;2022-11-20T05:45:25;7.90;99.90
23550;DHT22;11953;49.010;8.608;2022-11-20T05:48:12;7.90;99.90
23550;DHT22;11953;49.010;8.608;2022-11-20T05:50:58;8.00;99.90
23550;DHT22;11953;49.010;8.608;2022-11-20T05:53:46;8.00;99.90
23550;DHT22;11953;49.010;8.608;2022-11-20T05:56:33;8.00;99.90
23550;DHT22;11953;49.010;8.608;2022-11-20T05:59:19;8.00;99.90
23550;DHT22;11953;49.010;8.608;2022-11-20T06:02:08;8.00;99.90
23550;DHT22;11953;49.010;8.608;2022-11-20T06:04:54;8.00;99.90
23550;DHT22;11953;49.010;8.608;2022-11-20T06:07:41;8.00;99.90
23550;DHT22;11953;49.010;8.608;2022-11-20T06:10:27;8.00;99.90
23550;DHT22;11953;49.010;8.608;2022-11-20T06:13:13;8.00;99.90
23550;DHT22;11953;49.010;8.608;2022-11-20T06:16:00;8.00;99.90
23550;DHT22;11953;49.010;8.608;2022-11-20T06:18:49;8.00;99.90
23550;DHT22;11953;49.010;8.608;2022-11-20T06:21:35;8.00;99.90
23550;DHT22;11953;49.010;8.608;2022-11-20T06:24:21;8.10;99.90
23550;DHT22;11953;49.010;8.608;2022-11-20T06:27:10;8.00;99.90
23550;DHT22;11953;49.010;8.608;2022-11-20T06:29:57;8.00;99.90
23550;DHT22;11953;49.010;8.608;2022-11-20T06:32:43;8.00;99.90
23550;DHT22;11953;49.010;8.608;2022-11-20T06:35:31;8.00;99.90
23550;DHT22;11953;49.010;8.608;2022-11-20T06:38:18;8.00;99.90
23550;DHT22;11953;49.010;8.608;2022-11-20T06:41:06;8.00;99.90
23550;DHT22;11953;49.010;8.608;2022-11-20T06:43:53;8.00;99.90
23550;DHT22;11953;49.010;8.608;2022-11-20T06:46:39;8.00;99.90
23550;DHT22;11953;49.010;8.608;2022-11-20T06:49:26;8.00;99.90
23550;DHT22;11953;49.010;8.608;2022-11-20T06:52:14;7.90;99.90
23550;DHT22;11953;49.010;8.608;2022-11-20T06:55:01;8.00;99.90
23550;DHT22;11953;49.010;8.608;2022-11-20T06:57:47;8.00;99.90
23550;DHT22;11953;49.010;8.608;2022-11-20T07:00:40;8.10;99.90
23550;DHT22;11953;49.010;8.608;2022-11-20T07:03:27;8.00;99.90
23550;DHT22;11953;49.010;8.608;2022-11-20T07:06:14;8.00;99.90
23550;DHT22;11953;49.010;8.608;2022-11-20T07:09:02;8.00;99.90
23550;DHT22;11953;49.010;8.608;2022-11-20T07:11:55;8.10;99.90
23550;DHT22;11953;49.010;8.608;2022-11-20T07:14:42;8.10;99.90
23550;DHT22;11953;49.010;8.608;2022-11-20T07:17:28;8.00;99.90
23550;DHT22;11953;49.010;8.608;2022-11-20T07:20:15;8.10;99.90
23550;DHT22;11953;49.010;8.608;2022-11-20T07:23:02;8.10;99.90
23550;DHT22;11953;49.010;8.608;2022-11-20T07:25:50;8.10;99.90
23550;DHT22;11953;49.010;8.608;2022-11-20T07:28:37;8.00;99.90
23550;DHT22;11953;49.010;8.608;2022-11-20T07:31:23;8.00;99.90
23550;DHT22;11953;49.010;8.608;2022-11-20T07:34:10;8.00;99.90
23550;DHT22;11953;49.010;8.608;2022-11-20T07:36:57;8.00;99.90
23550;DHT22;11953;49.010;8.608;2022-11-20T07:39:43;8.00;99.90
23550;DHT22;11953;49.010;8.608;2022-11-20T07:42:31;8.00;99.90
23550;DHT22;11953;49.010;8.608;2022-11-20T07:45:19;7.90;99.90
23550;DHT22;11953;49.010;8.608;2022-11-20T07:48:05;8.00;99.90
23550;DHT22;11953;49.010;8.608;2022-11-20T07:50:53;8.00;99.90
23550;DHT22;11953;49.010;8.608;2022-11-20T07:53:41;8.00;99.90
23550;DHT22;11953;49.010;8.608;2022-11-20T07:56:27;8.00;99.90
23550;DHT22;11953;49.010;8.608;2022-11-20T07:59:15;8.00;99.90
23550;DHT22;11953;49.010;8.608;2022-11-20T08:02:02;8.00;99.90
23550;DHT22;11953;49.010;8.608;2022-11-20T08:04:48;8.00;99.90
23550;DHT22;11953;49.010;8.608;2022-11-20T08:07:36;8.00;99.90
23550;DHT22;11953;49.010;8.608;2022-11-20T08:10:23;8.00;99.90
23550;DHT22;11953;49.010;8.608;2022-11-20T08:13:10;8.00;99.90
23550;DHT22;11953;49.010;8.608;2022-11-20T08:16:15;8.00;99.90
23550;DHT22;11953;49.010;8.608;2022-11-20T08:19:02;8.00;99.90
23550;DHT22;11953;49.010;8.608;2022-11-20T08:21:48;8.00;99.90
23550;DHT22;11953;49.010;8.608;2022-11-20T08:24:35;8.00;99.90
23550;DHT22;11953;49.010;8.608;2022-11-20T08:27:21;8.00;99.90
23550;DHT22;11953;49.010;8.608;2022-11-20T08:30:09;8.00;99.90
23550;DHT22;11953;49.010;8.608;2022-11-20T08:33:00;8.00;99.90
23550;DHT22;11953;49.010;8.608;2022-11-20T08:35:47;8.10;99.90
23550;DHT22;11953;49.010;8.608;2022-11-20T08:38:33;8.20;99.90
23550;DHT22;11953;49.010;8.608;2022-11-20T08:41:20;8.20;99.90
23550;DHT22;11953;49.010;8.608;2022-11-20T08:44:11;8.10;99.90
23550;DHT22;11953;49.010;8.608;2022-11-20T08:46:57;8.10;99.90
23550;DHT22;11953;49.010;8.608;2022-11-20T08:49:45;8.10;99.90
23550;DHT22;11953;49.010;8.608;2022-11-20T08:52:31;8.10;99.90
23550;DHT22;11953;49.010;8.608;2022-11-20T08:55:24;8.10;99.90
23550;DHT22;11953;49.010;8.608;2022-11-20T08:58:10;8.10;99.90
23550;DHT22;11953;49.010;8.608;2022-11-20T09:00:57;8.10;99.90
23550;DHT22;11953;49.010;8.608;2022-11-20T09:03:43;8.20;99.90
23550;DHT22;11953;49.010;8.608;2022-11-20T09:06:31;8.20;99.90
23550;DHT22;11953;49.010;8.608;2022-11-20T09:09:18;8.20;99.90
23550;DHT22;11953;49.010;8.608;2022-11-20T09:12:06;8.10;99.90
23550;DHT22;11953;49.010;8.608;2022-11-20T09:14:53;8.20;99.90
23550;DHT22;11953;49.010;8.608;2022-11-20T09:17:39;8.20;99.90
23550;DHT22;11953;49.010;8.608;2022-11-20T09:20:27;8.30;99.90
23550;DHT22;11953;49.010;8.608;2022-11-20T09:23:16;8.30;99.90
23550;DHT22;11953;49.010;8.608;2022-11-20T09:26:03;8.30;99.90
23550;DHT22;11953;49.010;8.608;2022-11-20T09:28:50;8.30;99.90
23550;DHT22;11953;49.010;8.608;2022-11-20T09:31:42;8.30;99.90
23550;DHT22;11953;49.010;8.608;2022-11-20T09:34:28;8.20;99.90
23550;DHT22;11953;49.010;8.608;2022-11-20T09:37:15;8.20;99.90
23550;DHT22;11953;49.010;8.608;2022-11-20T09:40:03;8.20;99.90
23550;DHT22;11953;49.010;8.608;2022-11-20T09:42:55;8.20;99.90
23550;DHT22;11953;49.010;8.608;2022-11-20T09:45:57;8.30;99.90
23550;DHT22;11953;49.010;8.608;2022-11-20T09:48:54;8.20;99.90
23550;DHT22;11953;49.010;8.608;2022-11-20T09:51:51;8.20;99.90
23550;DHT22;11953;49.010;8.608;2022-11-20T09:54:40;8.30;99.90
23550;DHT22;11953;49.010;8.608;2022-11-20T09:57:34;8.30;99.90
23550;DHT22;11953;49.010;8.608;2022-11-20T10:00:21;8.30;99.90
23550;DHT22;11953;49.010;8.608;2022-11-20T10:03:14;8.40;99.90
23550;DHT22;11953;49.010;8.608;2022-11-20T10:06:03;8.40;99.90
23550;DHT22;11953;49.010;8.608;2022-11-20T10:09:01;8.30;99.90
23550;DHT22;11953;49.010;8.608;2022-11-20T10:12:00;8.30;99.90
23550;DHT22;11953;49.010;8.608;2022-11-20T10:15:01;8.30;99.90
23550;DHT22;11953;49.010;8.608;2022-11-20T10:18:01;8.20;99.90
23550;DHT22;11953;49.010;8.608;2022-11-20T10:20:53;8.20;99.90
23550;DHT22;11953;49.010;8.608;2022-11-20T10:23:56;8.10;99.90
23550;DHT22;11953;49.010;8.608;2022-11-20T10:26:55;8.20;99.90
23550;DHT22;11953;49.010;8.608;2022-11-20T10:29:50;8.20;99.90
23550;DHT22;11953;49.010;8.608;2022-11-20T10:32:43;8.30;99.90
23550;DHT22;11953;49.010;8.608;2022-11-20T10:35:35;8.30;99.90
23550;DHT22;11953;49.010;8.608;2022-11-20T10:38:26;8.30;99.90
23550;DHT22;11953;49.010;8.608;2022-11-20T10:41:20;8.40;99.90
23550;DHT22;11953;49.010;8.608;2022-11-20T10:44:14;8.50;99.90
23550;DHT22;11953;49.010;8.608;2022-11-20T10:47:21;8.50;99.90
23550;DHT22;11953;49.010;8.608;2022-11-20T10:50:13;8.70;99.90
23550;DHT22;11953;49.010;8.608;2022-11-20T10:53:16;8.70;99.90
23550;DHT22;11953;49.010;8.608;2022-11-20T10:56:14;8.70;99.90
23550;DHT22;11953;49.010;8.608;2022-11-20T11:02:18;9.00;99.90
23550;DHT22;11953;49.010;8.608;2022-11-20T11:05:25;9.30;99.90
23550;DHT22;11953;49.010;8.608;2022-11-20T11:08:15;9.40;99.90
23550;DHT22;11953;49.010;8.608;2022-11-20T11:11:13;9.40;99.90
23550;DHT22;11953;49.010;8.608;2022-11-20T11:14:06;9.40;99.90
23550;DHT22;11953;49.010;8.608;2022-11-20T11:16:54;9.30;99.90
23550;DHT22;11953;49.010;8.608;2022-11-20T11:19:41;9.30;99.90
23550;DHT22;11953;49.010;8.608;2022-11-20T11:22:31;9.20;99.90
23550;DHT22;11953;49.010;8.608;2022-11-20T11:25:24;9.20;99.90
23550;DHT22;11953;49.010;8.608;2022-11-20T11:28:21;9.30;99.90
23550;DHT22;11953;49.010;8.608;2022-11-20T11:31:10;9.30;99.90
23550;DHT22;11953;49.010;8.608;2022-11-20T11:34:06;9.60;99.90
23550;DHT22;11953;49.010;8.608;2022-11-20T11:36:56;9.90;99.90
23550;DHT22;11953;49.010;8.608;2022-11-20T11:39:44;10.20;99.90
23550;DHT22;11953;49.010;8.608;2022-11-20T11:42:46;10.30;99.90
23550;DHT22;11953;49.010;8.608;2022-11-20T11:45:34;10.30;99.90
23550;DHT22;11953;49.010;8.608;2022-11-20T11:48:21;10.00;99.90
23550;DHT22;11953;49.010;8.608;2022-11-20T11:51:08;9.80;99.90
23550;DHT22;11953;49.010;8.608;2022-11-20T11:53:57;9.80;99.90
23550;DHT22;11953;49.010;8.608;2022-11-20T11:56:46;9.80;99.90
23550;DHT22;11953;49.010;8.608;2022-11-20T11:59:41;9.80;99.90
23550;DHT22;11953;49.010;8.608;2022-11-20T12:02:36;9.80;99.90
23550;DHT22;11953;49.010;8.608;2022-11-20T12:05:24;10.00;99.90
23550;DHT22;11953;49.010;8.608;2022-11-20T12:08:17;10.40;99.90
23550;DHT22;11953;49.010;8.608;2022-11-20T12:11:12;10.50;99.90
23550;DHT22;11953;49.010;8.608;2022-11-20T12:14:04;10.90;99.90
23550;DHT22;11953;49.010;8.608;2022-11-20T12:16:55;10.80;99.90
23550;DHT22;11953;49.010;8.608;2022-11-20T12:19:43;10.80;99.90
23550;DHT22;11953;49.010;8.608;2022-11-20T12:22:34;10.80;99.90
23550;DHT22;11953;49.010;8.608;2022-11-20T12:25:24;11.00;99.90
23550;DHT22;11953;49.010;8.608;2022-11-20T12:31:51;11.20;99.90
23550;DHT22;11953;49.010;8.608;2022-11-20T12:34:53;11.00;99.90
23550;DHT22;11953;49.010;8.608;2022-11-20T12:37:48;10.70;99.90
23550;DHT22;11953;49.010;8.608;2022-11-20T12:40:42;10.50;99.90
23550;DHT22;11953;49.010;8.608;2022-11-20T12:43:35;10.40;99.90
23550;DHT22;11953;49.010;8.608;2022-11-20T12:46:46;10.40;99.90
23550;DHT22;11953;49.010;8.608;2022-11-20T12:49:38;10.60;99.90
23550;DHT22;11953;49.010;8.608;2022-11-20T12:52:38;10.80;99.90
23550;DHT22;11953;49.010;8.608;2022-11-20T12:55:36;11.00;99.90
23550;DHT22;11953;49.010;8.608;2022-11-20T12:58:31;11.00;99.90
23550;DHT22;11953;49.010;8.608;2022-11-20T13:01:25;10.90;99.90
23550;DHT22;11953;49.010;8.608;2022-11-20T13:04:44;10.80;99.90
23550;DHT22;11953;49.010;8.608;2022-11-20T13:07:36;10.80;99.90
23550;DHT22;11953;49.010;8.608;2022-11-20T13:10:30;10.70;99.90
23550;DHT22;11953;49.010;8.608;2022-11-20T13:13:23;10.40;99.90
23550;DHT22;11953;49.010;8.608;2022-11-20T13:16:18;10.20;99.90
23550;DHT22;11953;49.010;8.608;2022-11-20T13:19:10;10.00;99.90
23550;DHT22;11953;49.010;8.608;2022-11-20T13:21:58;10.00;99.90
23550;DHT22;11953;49.010;8.608;2022-11-20T13:24:50;9.90;99.90
23550;DHT22;11953;49.010;8.608;2022-11-20T13:27:47;9.90;99.90
23550;DHT22;11953;49.010;8.608;2022-11-20T13:30:34;9.90;99.90
23550;DHT22;11953;49.010;8.608;2022-11-20T13:33:25;9.80;99.90
23550;DHT22;11953;49.010;8.608;2022-11-20T13:36:22;9.80;99.90
23550;DHT22;11953;49.010;8.608;2022-11-20T13:39:11;9.70;99.90
23550;DHT22;11953;49.010;8.608;2022-11-20T13:41:58;9.60;99.90
23550;DHT22;11953;49.010;8.608;2022-11-20T13:44:48;9.50;99.90
23550;DHT22;11953;49.010;8.608;2022-11-20T13:47:37;9.50;99.90
23550;DHT22;11953;49.010;8.608;2022-11-20T13:50:39;9.50;99.90
23550;DHT22;11953;49.010;8.608;2022-11-20T13:53:36;9.60;99.90
23550;DHT22;11953;49.010;8.608;2022-11-20T13:56:38;9.60;99.90
23550;DHT22;11953;49.010;8.608;2022-11-20T13:59:36;9.60;99.90
23550;DHT22;11953;49.010;8.608;2022-11-20T14:02:27;9.70;99.90
23550;DHT22;11953;49.010;8.608;2022-11-20T14:05:19;9.60;99.90
23550;DHT22;11953;49.010;8.608;2022-11-20T14:08:13;9.60;99.90
23550;DHT22;11953;49.010;8.608;2022-11-20T14:11:11;9.50;99.90
23550;DHT22;11953;49.010;8.608;2022-11-20T14:14:02;9.40;99.90
23550;DHT22;11953;49.010;8.608;2022-11-20T14:16:50;9.30;99.90
23550;DHT22;11953;49.010;8.608;2022-11-20T14:19:38;9.40;99.90
23550;DHT22;11953;49.010;8.608;2022-11-20T14:22:26;9.30;99.90
23550;DHT22;11953;49.010;8.608;2022-11-20T14:25:19;9.30;99.90
23550;DHT22;11953;49.010;8.608;2022-11-20T14:28:11;9.40;99.90
23550;DHT22;11953;49.010;8.608;2022-11-20T14:31:18;9.40;99.90
23550;DHT22;11953;49.010;8.608;2022-11-20T14:34:13;9.50;99.90
23550;DHT22;11953;49.010;8.608;2022-11-20T14:37:09;9.50;99.90
23550;DHT22;11953;49.010;8.608;2022-11-20T14:40:01;9.50;99.90
23550;DHT22;11953;49.010;8.608;2022-11-20T14:42:48;9.40;99.90
23550;DHT22;11953;49.010;8.608;2022-11-20T14:45:35;9.40;99.90
23550;DHT22;11953;49.010;8.608;2022-11-20T14:48:26;9.40;99.90
23550;DHT22;11953;49.010;8.608;2022-11-20T14:51:26;9.40;99.90
23550;DHT22;11953;49.010;8.608;2022-11-20T14:54:15;9.30;99.90
23550;DHT22;11953;49.010;8.608;2022-11-20T14:57:03;9.20;99.90
23550;DHT22;11953;49.010;8.608;2022-11-20T14:59:50;9.20;99.90
23550;DHT22;11953;49.010;8.608;2022-11-20T15:02:39;9.20;99.90
23550;DHT22;11953;49.010;8.608;2022-11-20T15:05:46;9.10;99.90
23550;DHT22;11953;49.010;8.608;2022-11-20T15:08:33;9.10;99.90
23550;DHT22;11953;49.010;8.608;2022-11-20T15:11:25;9.10;99.90
23550;DHT22;11953;49.010;8.608;2022-11-20T15:14:14;9.10;99.90
23550;DHT22;11953;49.010;8.608;2022-11-20T15:17:00;9.10;99.90
23550;DHT22;11953;49.010;8.608;2022-11-20T15:19:47;9.10;99.90
23550;DHT22;11953;49.010;8.608;2022-11-20T15:22:35;9.10;99.90
23550;DHT22;11953;49.010;8.608;2022-11-20T15:25:21;9.00;99.90
23550;DHT22;11953;49.010;8.608;2022-11-20T15:28:16;9.00;99.90
23550;DHT22;11953;49.010;8.608;2022-11-20T15:31:04;8.90;99.90
23550;DHT22;11953;49.010;8.608;2022-11-20T15:33:50;8.90;99.90
23550;DHT22;11953;49.010;8.608;2022-11-20T15:36:37;8.90;99.90
23550;DHT22;11953;49.010;8.608;2022-11-20T15:39:25;8.80;99.90
23550;DHT22;11953;49.010;8.608;2022-11-20T15:42:12;8.90;99.90
23550;DHT22;11953;49.010;8.608;2022-11-20T15:44:58;8.90;99.90
23550;DHT22;11953;49.010;8.608;2022-11-20T15:47:45;8.80;99.90
23550;DHT22;11953;49.010;8.608;2022-11-20T15:50:36;8.80;99.90
23550;DHT22;11953;49.010;8.608;2022-11-20T15:53:23;8.80;99.90
23550;DHT22;11953;49.010;8.608;2022-11-20T15:56:12;8.80;99.90
23550;DHT22;11953;49.010;8.608;2022-11-20T15:58:59;8.80;99.90
23550;DHT22;11953;49.010;8.608;2022-11-20T16:01:45;8.80;99.90
23550;DHT22;11953;49.010;8.608;2022-11-20T16:04:32;8.80;99.90
23550;DHT22;11953;49.010;8.608;2022-11-20T16:07:19;8.80;99.90
23550;DHT22;11953;49.010;8.608;2022-11-20T16:10:06;8.80;99.90
23550;DHT22;11953;49.010;8.608;2022-11-20T16:12:54;8.80;99.90
23550;DHT22;11953;49.010;8.608;2022-11-20T16:16:01;8.70;99.90
23550;DHT22;11953;49.010;8.608;2022-11-20T16:18:50;8.70;99.90
23550;DHT22;11953;49.010;8.608;2022-11-20T16:21:38;8.70;99.90
23550;DHT22;11953;49.010;8.608;2022-11-20T16:24:26;8.70;99.90
23550;DHT22;11953;49.010;8.608;2022-11-20T16:27:13;8.80;99.90
23550;DHT22;11953;49.010;8.608;2022-11-20T16:30:01;8.80;99.90
23550;DHT22;11953;49.010;8.608;2022-11-20T16:32:47;8.90;99.90
23550;DHT22;11953;49.010;8.608;2022-11-20T16:35:34;8.80;99.90
23550;DHT22;11953;49.010;8.608;2022-11-20T16:38:20;8.80;99.90
23550;DHT22;11953;49.010;8.608;2022-11-20T16:41:08;8.80;99.90
23550;DHT22;11953;49.010;8.608;2022-11-20T16:44:01;8.70;99.90
23550;DHT22;11953;49.010;8.608;2022-11-20T16:46:49;8.80;99.90
23550;DHT22;11953;49.010;8.608;2022-11-20T16:49:36;8.80;99.90
23550;DHT22;11953;49.010;8.608;2022-11-20T16:52:23;8.80;99.90
23550;DHT22;11953;49.010;8.608;2022-11-20T16:55:09;8.80;99.90
23550;DHT22;11953;49.010;8.608;2022-11-20T16:57:56;8.80;99.90
23550;DHT22;11953;49.010;8.608;2022-11-20T17:00:43;8.80;99.90
23550;DHT22;11953;49.010;8.608;2022-11-20T17:03:37;8.70;99.90
23550;DHT22;11953;49.010;8.608;2022-11-20T17:06:26;8.70;99.90
23550;DHT22;11953;49.010;8.608;2022-11-20T17:09:13;8.80;99.90
23550;DHT22;11953;49.010;8.608;2022-11-20T17:11:59;8.80;99.90
23550;DHT22;11953;49.010;8.608;2022-11-20T17:14:46;9.00;99.90
23550;DHT22;11953;49.010;8.608;2022-11-20T17:17:33;8.90;99.90
23550;DHT22;11953;49.010;8.608;2022-11-20T17:20:21;8.90;99.90
23550;DHT22;11953;49.010;8.608;2022-11-20T17:23:07;8.90;99.90
23550;DHT22;11953;49.010;8.608;2022-11-20T17:26:00;9.00;99.90
23550;DHT22;11953;49.010;8.608;2022-11-20T17:28:52;8.90;99.90
23550;DHT22;11953;49.010;8.608;2022-11-20T17:31:39;8.90;99.90
23550;DHT22;11953;49.010;8.608;2022-11-20T17:34:26;8.90;99.90
23550;DHT22;11953;49.010;8.608;2022-11-20T17:37:13;8.90;99.90
23550;DHT22;11953;49.010;8.608;2022-11-20T17:40:00;8.90;99.90
23550;DHT22;11953;49.010;8.608;2022-11-20T17:42:46;8.90;99.90
23550;DHT22;11953;49.010;8.608;2022-11-20T17:45:34;8.60;99.90
23550;DHT22;11953;49.010;8.608;2022-11-20T17:48:21;8.40;99.90
23550;DHT22;11953;49.010;8.608;2022-11-20T17:51:10;8.40;99.90
23550;DHT22;11953;49.010;8.608;2022-11-20T17:54:00;8.40;99.90
23550;DHT22;11953;49.010;8.608;2022-11-20T17:56:47;8.40;99.90
23550;DHT22;11953;49.010;8.608;2022-11-20T17:59:51;8.50;99.90
23550;DHT22;11953;49.010;8.608;2022-11-20T18:02:37;8.50;99.90
23550;DHT22;11953;49.010;8.608;2022-11-20T18:05:25;8.50;99.90
23550;DHT22;11953;49.010;8.608;2022-11-20T18:08:12;8.50;99.90
23550;DHT22;11953;49.010;8.608;2022-11-20T18:11:07;8.50;99.90
23550;DHT22;11953;49.010;8.608;2022-11-20T18:13:57;8.50;99.90